Time;durP1;ratioP1;P1;durP2;ratioP2;P2;SDS_P1;SDS_P2;PMS_P1;PMS_P2;Temp;Humidity;BMP_temperature;BMP_pressure;BME280_temperature;BME280_humidity;BME280_pressure;Samples;Min_cycle;Max_cycle;Signal;HPM_P1;HPM_P2
2022/09/25 00:00:43;;;;;;;14.47;13.03;;;;;;;12.64;nan;97698.28;5053325;28;20232;-70
2022/09/25 00:03:14;;;;;;;15.00;13.40;;;;;;;12.64;nan;97703.63;5053383;28;20208;-70
2022/09/25 00:05:42;;;;;;;14.73;12.97;;;;;;;12.64;nan;97700.97;5053577;28;20213;-69
2022/09/25 00:08:10;;;;;;;13.23;12.03;;;;;;;12.63;nan;97702.00;5053117;28;20234;-70
2022/09/25 00:10:45;;;;;;;13.67;12.37;;;;;;;12.71;nan;97693.59;5053276;28;20229;-70
2022/09/25 00:13:12;;;;;;;13.23;12.10;;;;;;;12.67;nan;97695.16;5053625;28;20231;-70
2022/09/25 00:15:38;;;;;;;13.60;11.93;;;;;;;12.58;nan;97688.59;5053336;28;20299;-70
2022/09/25 00:18:05;;;;;;;12.70;11.40;;;;;;;12.59;nan;97705.38;5053181;28;20212;-69
2022/09/25 00:20:30;;;;;;;13.70;12.40;;;;;;;12.62;nan;97704.91;5053183;28;20232;-70
2022/09/25 00:22:59;;;;;;;12.63;11.50;;;;;;;12.59;nan;97700.88;5053234;28;20223;-69
2022/09/25 00:25:26;;;;;;;12.20;11.00;;;;;;;12.57;nan;97700.28;5052960;28;20223;-69
2022/09/25 00:27:53;;;;;;;13.17;11.97;;;;;;;12.55;nan;97696.25;5052863;28;20212;-70
2022/09/25 00:30:19;;;;;;;14.70;13.13;;;;;;;12.54;nan;97705.31;5052771;28;20236;-69
2022/09/25 00:32:45;;;;;;;13.10;11.90;;;;;;;12.54;nan;97702.63;5053184;28;20313;-70
2022/09/25 00:35:12;;;;;;;13.07;11.97;;;;;;;12.58;nan;97698.44;5053346;28;20215;-69
2022/09/25 00:37:38;;;;;;;12.60;11.40;;;;;;;12.56;nan;97690.69;5057840;28;20208;-69
2022/09/25 00:40:06;;;;;;;14.40;13.00;;;;;;;12.54;nan;97690.13;5056877;28;20235;-69
2022/09/25 00:42:32;;;;;;;12.80;11.23;;;;;;;12.53;nan;97685.81;5056641;28;20609;-70
2022/09/25 00:45:00;;;;;;;13.50;12.20;;;;;;;12.54;nan;97686.63;5056828;28;20208;-70
2022/09/25 00:47:51;;;;;;;12.83;11.63;;;;;;;12.50;nan;97680.97;5056826;28;20232;-69
2022/09/25 00:50:32;;;;;;;14.27;12.83;;;;;;;12.41;nan;97670.94;5047644;28;20238;-69
2022/09/25 00:53:14;;;;;;;13.63;12.30;;;;;;;12.39;nan;97663.16;5057322;28;20199;-69
2022/09/25 00:55:44;;;;;;;13.30;12.00;;;;;;;12.40;nan;97664.81;5055487;28;20556;-70
2022/09/25 00:58:14;;;;;;;12.00;11.00;;;;;;;12.40;nan;97656.81;5055343;28;20215;-70
2022/09/25 01:00:41;;;;;;;11.93;10.90;;;;;;;12.35;nan;97662.03;5056785;28;20227;-70
2022/09/25 01:03:08;;;;;;;13.40;12.20;;;;;;;12.36;nan;97653.00;5056565;28;20216;-70
2022/09/25 01:05:38;;;;;;;12.93;11.83;;;;;;;12.39;nan;97657.84;5056432;28;20214;-70
2022/09/25 01:08:09;;;;;;;14.10;12.63;;;;;;;12.41;nan;97660.25;5056498;28;20203;-70
2022/09/25 01:10:36;;;;;;;13.10;11.87;;;;;;;12.43;nan;97653.66;5055271;28;20231;-70
2022/09/25 01:13:03;;;;;;;13.13;11.77;;;;;;;12.45;nan;97658.75;5055355;28;20212;-70
2022/09/25 01:15:48;;;;;;;11.90;10.80;;;;;;;12.43;nan;97656.31;5056227;28;20215;-70
2022/09/25 01:18:40;;;;;;;10.73;9.73;;;;;;;12.45;nan;97659.56;5055160;28;20221;-70
2022/09/25 01:21:26;;;;;;;12.03;10.93;;;;;;;12.45;nan;97656.06;5056220;28;20420;-70
2022/09/25 01:24:00;;;;;;;11.50;10.40;;;;;;;12.53;nan;97653.03;5055931;28;20196;-70
2022/09/25 01:27:01;;;;;;;11.93;10.83;;;;;;;12.52;nan;97651.41;5056071;28;20615;-70
2022/09/25 01:29:36;;;;;;;12.20;11.10;;;;;;;12.52;nan;97654.88;5056082;28;20200;-70
2022/09/25 01:32:28;;;;;;;11.83;10.77;;;;;;;12.54;nan;97658.13;5055730;28;20210;-70
2022/09/25 01:35:04;;;;;;;12.97;11.40;;;;;;;12.51;nan;97653.25;5056041;28;20195;-70
2022/09/25 01:37:39;;;;;;;14.37;11.87;;;;;;;12.48;nan;97655.59;5055936;28;20188;-70
2022/09/25 01:40:32;;;;;;;16.07;12.97;;;;;;;12.52;nan;97656.75;5054690;28;20228;-70
2022/09/25 01:43:14;;;;;;;11.73;10.60;;;;;;;12.52;nan;97665.53;5054949;28;20644;-70
2022/09/25 01:45:51;;;;;;;11.77;10.67;;;;;;;12.54;nan;97668.78;5056311;28;20226;-70
2022/09/25 01:48:23;;;;;;;12.43;11.27;;;;;;;12.56;nan;97671.19;5054402;28;20200;-71
2022/09/25 01:50:59;;;;;;;9.87;9.03;;;;;;;12.53;nan;97667.16;5054503;28;20228;-70
2022/09/25 01:53:33;;;;;;;10.40;9.50;;;;;;;12.56;nan;97661.34;5055637;28;20191;-70
2022/09/25 01:56:08;;;;;;;13.73;10.60;;;;;;;12.55;nan;97664.25;5055633;28;20196;-70
2022/09/25 01:58:42;;;;;;;11.03;9.93;;;;;;;12.55;nan;97665.06;5055851;28;20194;-70
2022/09/25 02:01:14;;;;;;;10.43;9.43;;;;;;;12.56;nan;97668.53;5055440;28;20227;-70
2022/09/25 02:03:51;;;;;;;10.60;9.67;;;;;;;12.61;nan;97669.44;5055040;28;20639;-70
2022/09/25 02:06:20;;;;;;;10.27;9.37;;;;;;;12.59;nan;97662.72;5055378;28;20227;-70
2022/09/25 02:08:53;;;;;;;11.03;9.97;;;;;;;12.57;nan;97662.16;5054175;28;20203;-70
2022/09/25 02:11:20;;;;;;;10.87;9.87;;;;;;;12.51;nan;97666.59;5055254;28;20221;-70
2022/09/25 02:14:02;;;;;;;11.00;10.03;;;;;;;12.55;nan;97661.59;5055265;28;20208;-70
2022/09/25 02:16:37;;;;;;;11.80;10.70;;;;;;;12.59;nan;97655.53;5053953;28;20182;-70
2022/09/25 02:22:19;;;;;;;11.47;10.43;;;;;;;12.50;nan;97654.31;5054848;28;20170;-70
2022/09/25 02:24:57;;;;;;;12.90;11.77;;;;;;;12.53;nan;97658.34;5055124;28;20187;-70
2022/09/25 02:27:28;;;;;;;13.60;11.93;;;;;;;12.56;nan;97664.00;5054654;28;20678;-70
2022/09/25 02:29:57;;;;;;;13.20;11.97;;;;;;;12.53;nan;97653.03;5055084;28;20243;-70
2022/09/25 02:32:29;;;;;;;16.70;12.70;;;;;;;12.49;nan;97660.72;5054559;28;20206;-70
2022/09/25 02:34:56;;;;;;;14.33;12.93;;;;;;;12.50;nan;97658.81;5054904;28;20197;-70
2022/09/25 02:37:22;;;;;;;13.87;12.47;;;;;;;12.52;nan;97657.53;5054791;28;20220;-70
2022/09/25 02:39:52;;;;;;;14.37;12.97;;;;;;;12.50;nan;97650.81;5054701;28;20227;-70
2022/09/25 02:42:37;;;;;;;14.97;13.43;;;;;;;12.51;nan;97649.78;5054351;28;20614;-70
2022/09/25 02:45:22;;;;;;;13.47;12.27;;;;;;;12.55;nan;97645.56;5038223;28;20197;-70
2022/09/25 02:48:20;;;;;;;15.23;12.50;;;;;;;12.53;nan;97648.47;5053241;28;20227;-70
2022/09/25 02:51:12;;;;;;;14.23;12.77;;;;;;;12.55;nan;97654.41;5053988;28;20259;-70
2022/09/25 02:53:49;;;;;;;13.10;11.77;;;;;;;12.55;nan;97650.91;5054555;28;20280;-70
2022/09/25 02:56:31;;;;;;;15.10;13.67;;;;;;;12.63;nan;97642.53;5055013;28;20194;-70
2022/09/25 02:59:07;;;;;;;16.23;14.53;;;;;;;12.54;nan;97646.63;5053981;28;20203;-70
2022/09/25 03:01:37;;;;;;;16.83;15.23;;;;;;;12.50;nan;97651.66;5053185;28;20637;-70
2022/09/25 03:04:05;;;;;;;17.13;15.43;;;;;;;12.52;nan;97641.53;5054301;28;20306;-70
2022/09/25 03:06:32;;;;;;;18.73;16.73;;;;;;;12.51;nan;97642.59;5054110;28;20230;-70
2022/09/25 03:09:00;;;;;;;19.97;17.97;;;;;;;12.50;nan;97651.66;5052712;28;20203;-70
2022/09/25 03:11:27;;;;;;;20.33;18.33;;;;;;;12.43;nan;97648.31;5054045;28;20259;-70
2022/09/25 03:13:59;;;;;;;20.90;18.73;;;;;;;12.36;nan;97652.19;5054055;28;20211;-70
2022/09/25 03:16:44;;;;;;;21.20;19.13;;;;;;;12.32;nan;97646.53;5054091;28;20207;-70
2022/09/25 03:19:11;;;;;;;21.80;19.47;;;;;;;12.28;nan;97641.91;5054131;28;20211;-70
2022/09/25 03:21:37;;;;;;;21.93;19.80;;;;;;;12.34;nan;97655.09;5054003;28;20208;-70
2022/09/25 03:24:04;;;;;;;22.03;19.93;;;;;;;12.28;nan;97650.72;5053947;28;20541;-70
2022/09/25 03:26:30;;;;;;;22.50;20.27;;;;;;;12.24;nan;97646.09;5053807;28;20231;-70
2022/09/25 03:29:01;;;;;;;22.90;20.57;;;;;;;12.25;nan;97647.72;5053799;28;20204;-70
2022/09/25 03:31:29;;;;;;;20.70;18.60;;;;;;;12.28;nan;97652.56;5053427;28;20250;-70
2022/09/25 03:33:56;;;;;;;22.50;20.20;;;;;;;12.26;nan;97652.00;5053786;28;20208;-70
2022/09/25 03:36:24;;;;;;;23.03;20.63;;;;;;;12.25;nan;97653.84;5053690;28;20207;-70
2022/09/25 03:38:56;;;;;;;22.57;20.37;;;;;;;12.27;nan;97659.78;5053718;28;20212;-70
2022/09/25 03:41:25;;;;;;;22.17;20.00;;;;;;;12.26;nan;97652.00;5053604;28;20319;-70
2022/09/25 03:43:53;;;;;;;21.63;19.43;;;;;;;12.31;nan;97660.09;5053567;28;20208;-70
2022/09/25 03:46:22;;;;;;;21.53;19.23;;;;;;;12.23;nan;97655.97;5053390;28;20215;-70
2022/09/25 03:48:48;;;;;;;22.47;20.20;;;;;;;12.23;nan;97650.63;5053246;28;20211;-70
2022/09/25 03:51:15;;;;;;;21.73;19.53;;;;;;;12.23;nan;97649.81;5053224;28;20229;-70
2022/09/25 03:53:41;;;;;;;22.03;19.93;;;;;;;12.25;nan;97651.19;5053513;28;20214;-70
2022/09/25 03:56:13;;;;;;;22.50;20.20;;;;;;;12.24;nan;97648.75;5053539;28;20207;-70
2022/09/25 03:58:40;;;;;;;21.47;19.27;;;;;;;12.27;nan;97648.28;5053562;28;20191;-70
2022/09/25 04:01:06;;;;;;;25.67;21.13;;;;;;;12.24;nan;97643.44;5054050;28;20227;-70
2022/09/25 04:03:34;;;;;;;24.47;20.97;;;;;;;12.23;nan;97637.31;5053507;28;20212;-70
2022/09/25 04:06:03;;;;;;;24.90;20.93;;;;;;;12.20;nan;97637.78;5053355;28;20238;-70
2022/09/25 04:08:30;;;;;;;22.13;19.93;;;;;;;12.21;nan;97635.94;5053176;28;20239;-70
2022/09/25 04:10:58;;;;;;;21.47;19.23;;;;;;;12.22;nan;97630.38;5054729;28;20238;-70
2022/09/25 04:13:29;;;;;;;20.80;18.53;;;;;;;12.17;nan;97632.91;5057439;28;20203;-70
2022/09/25 04:15:57;;;;;;;21.13;18.80;;;;;;;12.17;nan;97638.25;5057426;28;20196;-70
2022/09/25 04:18:24;;;;;;;20.27;18.30;;;;;;;12.19;nan;97641.50;5057423;28;20219;-70
2022/09/25 04:20:51;;;;;;;20.93;18.83;;;;;;;12.18;nan;97642.53;5057256;28;20228;-70
2022/09/25 04:23:18;;;;;;;19.30;17.43;;;;;;;12.16;nan;97641.97;5057345;28;20204;-70
2022/09/25 04:25:44;;;;;;;20.57;18.43;;;;;;;12.18;nan;97649.72;5057297;28;20213;-70
2022/09/25 04:28:11;;;;;;;20.93;18.70;;;;;;;12.20;nan;97642.31;5057194;28;20222;-70
2022/09/25 04:30:37;;;;;;;20.73;18.53;;;;;;;12.24;nan;97646.91;5056683;28;20242;-70
2022/09/25 04:35:48;;;;;;;21.43;19.33;;;;;;;12.20;nan;97642.31;5056899;28;20716;-70
2022/09/25 04:38:14;;;;;;;23.53;19.07;;;;;;;12.13;nan;97645.13;5057027;28;20208;-70
2022/09/25 04:40:40;;;;;;;20.77;18.67;;;;;;;12.20;nan;97645.78;5056698;28;20251;-70
2022/09/25 04:43:07;;;;;;;20.20;18.07;;;;;;;12.12;nan;97645.34;5056790;28;20207;-70
2022/09/25 04:45:36;;;;;;;21.00;18.87;;;;;;;12.12;nan;97645.34;5057194;28;20230;-70
2022/09/25 04:48:03;;;;;;;21.40;19.20;;;;;;;12.09;nan;97654.63;5056780;28;20249;-70
2022/09/25 04:50:29;;;;;;;21.67;18.43;;;;;;;12.13;nan;97649.63;5056797;28;20590;-70
2022/09/25 04:53:00;;;;;;;21.00;18.43;;;;;;;12.13;nan;97657.63;5057603;28;20527;-70
2022/09/25 04:55:27;;;;;;;21.30;19.20;;;;;;;12.12;nan;97645.34;5056793;28;20210;-70
2022/09/25 04:57:55;;;;;;;20.50;18.20;;;;;;;12.10;nan;97653.56;5056379;28;20290;-70
2022/09/25 05:00:23;;;;;;;20.90;18.73;;;;;;;12.12;nan;97643.47;5056465;28;20300;-70
2022/09/25 05:02:50;;;;;;;21.30;19.10;;;;;;;12.14;nan;97637.91;5056299;28;20216;-70
2022/09/25 05:05:17;;;;;;;22.27;19.67;;;;;;;12.14;nan;97637.91;5056574;28;20207;-70
2022/09/25 05:07:54;;;;;;;22.47;20.07;;;;;;;12.11;nan;97639.19;5056612;28;20251;-70
2022/09/25 05:10:22;;;;;;;26.80;19.87;;;;;;;12.09;nan;97638.66;5056428;28;20591;-70
2022/09/25 05:12:55;;;;;;;25.60;19.40;;;;;;;12.09;nan;97645.81;5056397;28;20217;-70
2022/09/25 05:15:21;;;;;;;23.20;20.40;;;;;;;12.06;nan;97636.44;5056440;28;20282;-70
2022/09/25 05:17:47;;;;;;;21.10;18.73;;;;;;;12.08;nan;97645.00;5056088;28;20777;-70
2022/09/25 05:20:14;;;;;;;23.63;19.17;;;;;;;12.11;nan;97643.75;5055892;28;20584;-70
2022/09/25 05:22:40;;;;;;;19.73;17.83;;;;;;;12.13;nan;97653.13;5055581;28;20205;-70
2022/09/25 05:25:08;;;;;;;20.40;17.13;;;;;;;12.09;nan;97648.47;5056108;28;20215;-70
2022/09/25 05:27:35;;;;;;;21.83;17.83;;;;;;;12.05;nan;97648.16;5056042;28;20238;-70
2022/09/25 05:30:01;;;;;;;22.70;18.20;;;;;;;12.04;nan;97649.22;5055879;28;20249;-70
2022/09/25 05:32:28;;;;;;;20.00;16.37;;;;;;;12.01;nan;97648.84;5056064;28;20190;-70
2022/09/25 05:34:54;;;;;;;17.67;15.70;;;;;;;12.02;nan;97655.81;5056015;28;20202;-70
2022/09/25 05:37:21;;;;;;;18.07;16.17;;;;;;;11.99;nan;97651.78;5055625;28;20685;-70
2022/09/25 05:39:47;;;;;;;22.13;17.60;;;;;;;11.98;nan;97657.34;5055856;28;20226;-70
2022/09/25 05:42:14;;;;;;;22.47;17.07;;;;;;;11.97;nan;97653.84;5055875;28;20298;-70
2022/09/25 05:44:41;;;;;;;21.90;16.93;;;;;;;12.04;nan;97653.72;5055822;28;20564;-70
2022/09/25 05:47:07;;;;;;;20.97;17.17;;;;;;;12.09;nan;97648.47;5055524;28;20611;-70
2022/09/25 05:49:33;;;;;;;18.97;16.00;;;;;;;12.02;nan;97655.81;5055677;28;20222;-70
2022/09/25 05:52:00;;;;;;;16.87;15.03;;;;;;;12.00;nan;97653.41;5055695;28;20209;-70
2022/09/25 05:54:26;;;;;;;17.90;15.73;;;;;;;11.99;nan;97649.13;5055641;28;20214;-70
2022/09/25 05:56:53;;;;;;;17.17;15.23;;;;;;;12.00;nan;97653.41;5055601;28;20206;-70
2022/09/25 05:59:19;;;;;;;18.57;15.03;;;;;;;11.98;nan;97650.13;5055504;28;20215;-70
2022/09/25 06:01:46;;;;;;;17.00;15.30;;;;;;;12.04;nan;97659.88;5055527;28;20206;-70
2022/09/25 06:04:12;;;;;;;16.60;14.00;;;;;;;12.04;nan;97654.53;5055470;28;20230;-70
2022/09/25 06:06:38;;;;;;;17.47;15.07;;;;;;;12.08;nan;97660.19;5055377;28;20210;-70
2022/09/25 06:09:05;;;;;;;15.63;13.97;;;;;;;12.05;nan;97658.00;5055679;28;20225;-70
2022/09/25 06:11:31;;;;;;;17.63;15.23;;;;;;;12.05;nan;97656.16;5055263;28;20587;-70
2022/09/25 06:13:57;;;;;;;14.80;13.20;;;;;;;12.09;nan;97657.31;5055280;28;20212;-70
2022/09/25 06:16:24;;;;;;;16.10;14.40;;;;;;;12.13;nan;97653.13;5054891;28;20576;-70
2022/09/25 06:18:51;;;;;;;15.60;13.97;;;;;;;12.15;nan;97666.16;5055187;28;20202;-70
2022/09/25 06:21:17;;;;;;;16.07;14.33;;;;;;;12.11;nan;97657.84;5055019;28;20280;-70
2022/09/25 06:23:45;;;;;;;17.83;13.87;;;;;;;12.16;nan;97657.16;5055083;28;20560;-70
2022/09/25 06:26:13;;;;;;;17.53;14.70;;;;;;;12.21;nan;97654.59;5055072;28;20205;-70
2022/09/25 06:28:39;;;;;;;15.20;13.63;;;;;;;12.21;nan;97655.38;5054893;28;20319;-70
2022/09/25 06:31:06;;;;;;;16.33;14.27;;;;;;;12.16;nan;97657.16;5054515;28;20245;-70
2022/09/25 06:33:33;;;;;;;15.03;13.47;;;;;;;12.21;nan;97655.38;5054125;28;20206;-70
2022/09/25 06:36:00;;;;;;;15.60;14.00;;;;;;;12.26;nan;97657.34;5054806;28;20224;-70
2022/09/25 06:38:26;;;;;;;14.83;13.23;;;;;;;12.24;nan;97657.56;5054687;28;20274;-70
2022/09/25 06:40:52;;;;;;;17.53;13.73;;;;;;;12.28;nan;97657.91;5054271;28;20828;-70
2022/09/25 06:43:19;;;;;;;14.53;13.10;;;;;;;12.29;nan;97656.88;5054342;28;20218;-70
2022/09/25 06:45:46;;;;;;;15.53;13.87;;;;;;;12.30;nan;97658.47;5054253;28;20218;-70
2022/09/25 06:48:14;;;;;;;14.43;12.90;;;;;;;12.30;nan;97659.28;5054709;28;20240;-70
2022/09/25 06:50:47;;;;;;;15.57;13.63;;;;;;;12.40;nan;97662.16;5054518;28;20226;-70
2022/09/25 06:53:14;;;;;;;15.37;13.73;;;;;;;12.38;nan;97658.09;5054180;28;20212;-70
2022/09/25 06:55:42;;;;;;;15.70;13.73;;;;;;;12.40;nan;97659.47;5054343;28;20552;-70
2022/09/25 06:58:12;;;;;;;14.83;13.37;;;;;;;12.43;nan;97663.53;5054330;28;20338;-70
2022/09/25 07:00:38;;;;;;;15.20;13.60;;;;;;;12.41;nan;97663.75;5054148;28;20232;-70
2022/09/25 07:05:49;;;;;;;14.60;13.10;;;;;;;12.43;nan;97661.66;5054246;28;20230;-70
2022/09/25 07:08:19;;;;;;;14.97;13.47;;;;;;;12.46;nan;97669.16;5053687;28;20224;-70
2022/09/25 07:10:54;;;;;;;13.80;12.33;;;;;;;12.48;nan;97664.41;5054401;28;20233;-70
2022/09/25 07:13:24;;;;;;;14.70;13.10;;;;;;;12.49;nan;97673.22;5053668;28;20207;-70
2022/09/25 07:15:55;;;;;;;13.80;12.50;;;;;;;12.50;nan;97666.81;5054107;28;20212;-70
2022/09/25 07:18:22;;;;;;;15.20;13.70;;;;;;;12.56;nan;97671.19;5053781;28;20185;-70
2022/09/25 07:20:50;;;;;;;14.47;12.97;;;;;;;12.58;nan;97672.59;5053904;28;20244;-70
2022/09/25 07:23:18;;;;;;;14.10;12.67;;;;;;;12.61;nan;97666.75;5053869;28;20205;-70
2022/09/25 07:25:45;;;;;;;13.70;12.40;;;;;;;12.64;nan;97671.63;5053478;28;20725;-70
2022/09/25 07:28:13;;;;;;;12.83;11.63;;;;;;;12.62;nan;97668.38;5053842;28;20224;-70
2022/09/25 07:30:40;;;;;;;13.30;11.90;;;;;;;12.65;nan;97673.22;5053395;28;20261;-70
2022/09/25 07:33:07;;;;;;;13.70;12.30;;;;;;;12.63;nan;97670.00;5053495;28;20663;-70
2022/09/25 07:35:37;;;;;;;14.00;12.60;;;;;;;12.73;nan;97669.34;5053819;28;20205;-70
2022/09/25 07:38:04;;;;;;;14.07;12.67;;;;;;;12.78;nan;97664.09;5053713;28;20207;-71
2022/09/25 07:40:34;;;;;;;14.57;13.10;;;;;;;12.79;nan;97669.19;5053507;28;20316;-70
2022/09/25 07:43:06;;;;;;;13.63;12.23;;;;;;;12.86;nan;97669.88;5053249;28;20244;-70
2022/09/25 07:45:33;;;;;;;13.23;11.97;;;;;;;12.93;nan;97667.81;5053540;28;20208;-70
2022/09/25 07:48:01;;;;;;;14.00;12.53;;;;;;;12.96;nan;97674.53;5053356;28;20239;-70
2022/09/25 07:50:29;;;;;;;13.27;12.07;;;;;;;12.99;nan;97666.91;5053470;28;20235;-70
2022/09/25 07:52:55;;;;;;;13.13;11.83;;;;;;;13.02;nan;97671.75;5053530;28;20208;-70
2022/09/25 07:55:22;;;;;;;14.27;12.80;;;;;;;13.09;nan;97675.06;5053456;28;20205;-70
2022/09/25 07:57:49;;;;;;;13.83;12.43;;;;;;;13.09;nan;97669.72;5053465;28;20204;-70
2022/09/25 08:00:16;;;;;;;14.10;12.80;;;;;;;13.13;nan;97672.72;5053020;28;20238;-70
2022/09/25 08:02:43;;;;;;;14.77;13.37;;;;;;;13.14;nan;97672.47;5052892;28;20684;-70
2022/09/25 08:05:10;;;;;;;14.80;13.30;;;;;;;13.21;nan;97670.41;5053301;28;20219;-70
2022/09/25 08:07:37;;;;;;;15.13;12.53;;;;;;;13.28;nan;97679.09;5053305;28;20209;-70
2022/09/25 08:10:03;;;;;;;14.40;12.90;;;;;;;13.27;nan;97674.81;5053262;28;20228;-70
2022/09/25 08:12:30;;;;;;;13.50;12.17;;;;;;;13.25;nan;97682.22;5054161;28;20219;-70
2022/09/25 08:14:56;;;;;;;13.30;12.00;;;;;;;13.30;nan;97682.31;5054084;28;20232;-70
2022/09/25 08:17:22;;;;;;;14.20;11.50;;;;;;;13.33;nan;97678.34;5053572;28;20201;-70
2022/09/25 08:19:49;;;;;;;12.37;11.07;;;;;;;13.36;nan;97681.34;5053237;28;20251;-70
2022/09/25 08:22:15;;;;;;;13.17;11.97;;;;;;;13.33;nan;97681.00;5052734;28;20209;-70
2022/09/25 08:24:41;;;;;;;12.07;10.97;;;;;;;13.21;nan;97677.63;5053203;28;20215;-70
2022/09/25 08:27:08;;;;;;;14.73;12.33;;;;;;;13.23;nan;97683.53;5053190;28;20209;-70
2022/09/25 08:29:34;;;;;;;13.03;11.83;;;;;;;13.26;nan;97683.88;5052830;28;20678;-70
2022/09/25 08:32:01;;;;;;;13.43;12.13;;;;;;;13.19;nan;97679.72;5052943;28;20192;-70
2022/09/25 08:34:27;;;;;;;13.03;11.83;;;;;;;13.15;nan;97674.06;5053001;28;20209;-70
2022/09/25 08:36:54;;;;;;;11.83;10.67;;;;;;;13.15;nan;97674.06;5053085;28;20231;-70
2022/09/25 08:39:20;;;;;;;13.80;12.50;;;;;;;13.17;nan;97676.50;5052951;28;20205;-70
2022/09/25 08:41:54;;;;;;;12.90;11.70;;;;;;;13.19;nan;97669.06;5052987;28;20202;-70
2022/09/25 08:44:30;;;;;;;13.67;11.83;;;;;;;13.21;nan;97669.63;5052639;28;20665;-70
2022/09/25 08:50:25;;;;;;;12.23;11.03;;;;;;;13.28;nan;97667.59;5051587;28;20293;-70
2022/09/25 08:53:06;;;;;;;12.37;11.17;;;;;;;13.33;nan;97665.81;5052405;28;20220;-70
2022/09/25 08:58:32;;;;;;;11.77;10.67;;;;;;;13.43;nan;97654.47;5055568;28;20271;-70
2022/09/25 09:01:02;;;;;;;11.70;10.70;;;;;;;13.50;nan;97661.25;5056504;28;20220;-70
2022/09/25 09:03:30;;;;;;;12.70;10.73;;;;;;;13.57;nan;97655.72;5057597;28;20208;-70
2022/09/25 09:06:05;;;;;;;10.73;9.83;;;;;;;13.65;nan;97657.97;5055285;28;20202;-70
2022/09/25 09:08:36;;;;;;;11.03;9.93;;;;;;;13.83;nan;97650.44;5056319;28;20212;-70
2022/09/25 09:11:18;;;;;;;9.87;8.97;;;;;;;13.93;nan;97661.25;5055057;28;20594;-70
2022/09/25 09:13:58;;;;;;;9.40;8.60;;;;;;;14.04;nan;97667.53;5056353;28;20190;-70
2022/09/25 09:16:24;;;;;;;8.77;7.93;;;;;;;13.89;nan;97676.16;5056241;28;20189;-70
2022/09/25 09:18:50;;;;;;;8.47;7.67;;;;;;;13.83;nan;97669.16;5056147;28;20296;-70
2022/09/25 09:21:34;;;;;;;9.33;8.43;;;;;;;13.89;nan;97673.47;5055643;28;20774;-70
2022/09/25 09:24:38;;;;;;;9.03;7.80;;;;;;;14.04;nan;97668.34;5056034;28;20209;-70
2022/09/25 09:27:22;;;;;;;9.47;8.00;;;;;;;14.36;nan;97666.59;5047210;28;20201;-70
2022/09/25 09:29:48;;;;;;;9.47;7.70;;;;;;;14.35;nan;97667.66;5056087;28;20236;-70
2022/09/25 09:32:39;;;;;;;8.57;7.77;;;;;;;14.09;nan;97660.38;5055879;28;20201;-70
2022/09/25 09:35:37;;;;;;;9.37;8.53;;;;;;;14.13;nan;97656.16;5055866;28;20197;-70
2022/09/25 09:38:13;;;;;;;8.43;7.63;;;;;;;14.14;nan;97656.94;5055960;28;20192;-70
2022/09/25 09:41:07;;;;;;;8.87;7.90;;;;;;;14.10;nan;97658.50;5055619;28;20231;-70
2022/09/25 09:43:49;;;;;;;8.17;7.47;;;;;;;14.05;nan;97658.44;5055798;28;20190;-70
2022/09/25 09:46:37;;;;;;;9.20;8.40;;;;;;;14.01;nan;97652.78;5055581;28;20194;-70
2022/09/25 09:49:35;;;;;;;9.90;8.90;;;;;;;14.06;nan;97660.09;5054406;28;20259;-70
2022/09/25 09:52:21;;;;;;;8.77;7.90;;;;;;;14.06;nan;97655.53;5050968;28;20672;-70
2022/09/25 09:55:06;;;;;;;9.23;7.10;;;;;;;14.08;nan;97658.78;5055659;28;20222;-70
2022/09/25 09:58:03;;;;;;;9.20;8.40;;;;;;;14.12;nan;97659.06;5054224;28;20285;-70
2022/09/25 10:00:31;;;;;;;11.87;8.30;;;;;;;14.10;nan;97658.50;5055444;28;20247;-70
2022/09/25 10:03:10;;;;;;;8.77;7.97;;;;;;;14.11;nan;97657.47;5055017;28;20209;-70
2022/09/25 10:05:42;;;;;;;8.00;7.30;;;;;;;14.06;nan;97671.56;5055381;28;20276;-70
2022/09/25 10:08:10;;;;;;;8.67;7.83;;;;;;;13.98;nan;97661.31;5052886;28;20196;-70
2022/09/25 10:10:42;;;;;;;10.07;8.90;;;;;;;14.03;nan;97660.56;5055462;28;20221;-70
2022/09/25 10:13:20;;;;;;;9.67;8.20;;;;;;;14.02;nan;97659.75;5053996;28;20196;-70
2022/09/25 10:15:51;;;;;;;11.23;8.03;;;;;;;14.07;nan;97657.13;5054846;28;20190;-70
2022/09/25 10:18:21;;;;;;;8.80;8.00;;;;;;;14.21;nan;97658.41;5055128;28;20201;-70
2022/09/25 10:20:56;;;;;;;10.43;9.37;;;;;;;14.30;nan;97654.19;5054780;28;20221;-70
2022/09/25 10:23:41;;;;;;;10.73;9.47;;;;;;;14.54;nan;97649.38;5053704;28;20196;-70
2022/09/25 10:26:30;;;;;;;10.33;9.37;;;;;;;14.63;nan;97651.34;5054846;28;20196;-69
2022/09/25 10:29:02;;;;;;;10.00;8.93;;;;;;;14.55;nan;97648.28;5054880;28;20206;-70
2022/09/25 10:31:32;;;;;;;8.87;8.07;;;;;;;14.80;nan;97644.00;5054460;28;20244;-69
2022/09/25 10:34:15;;;;;;;10.67;9.70;;;;;;;14.46;nan;97650.63;5054868;28;20193;-70
2022/09/25 10:36:45;;;;;;;10.03;9.03;;;;;;;14.45;nan;97648.22;5054685;28;20194;-70
2022/09/25 10:39:33;;;;;;;11.53;9.67;;;;;;;14.26;nan;97654.97;5054455;28;20208;-70
2022/09/25 10:42:01;;;;;;;12.83;9.33;;;;;;;14.10;nan;97655.81;5054565;28;20190;-70
2022/09/25 10:44:33;;;;;;;11.50;10.40;;;;;;;14.03;nan;97658.72;5054504;28;20209;-70
2022/09/25 10:50:17;;;;;;;11.10;10.03;;;;;;;13.81;nan;97654.41;5053925;28;20358;-70
2022/09/25 10:52:50;;;;;;;11.60;9.90;;;;;;;13.78;nan;97660.25;5054305;28;20231;-70
2022/09/25 10:55:27;;;;;;;12.40;11.10;;;;;;;13.68;nan;97657.47;5053969;28;20626;-70
2022/09/25 10:58:29;;;;;;;14.07;11.73;;;;;;;13.65;nan;97658.75;5054343;28;20556;-69
2022/09/25 11:00:58;;;;;;;14.77;12.97;;;;;;;13.57;nan;97659.19;5054118;28;20225;-70
2022/09/25 11:03:26;;;;;;;16.50;14.83;;;;;;;13.67;nan;97662.00;5054178;28;20209;-70
2022/09/25 11:05:56;;;;;;;16.77;14.97;;;;;;;13.56;nan;97657.56;5053953;28;20215;-70
2022/09/25 11:08:30;;;;;;;16.73;15.00;;;;;;;13.54;nan;97661.56;5053805;28;20253;-70
2022/09/25 11:10:59;;;;;;;16.70;15.20;;;;;;;13.55;nan;97663.97;5054156;28;20233;-70
2022/09/25 11:13:35;;;;;;;18.70;16.70;;;;;;;13.50;nan;97669.25;5052610;28;20209;-70
2022/09/25 11:16:09;;;;;;;18.53;16.63;;;;;;;13.54;nan;97665.03;5053638;28;20554;-70
2022/09/25 11:18:37;;;;;;;18.77;16.87;;;;;;;13.53;nan;97659.94;5053638;28;20613;-70
2022/09/25 11:21:05;;;;;;;18.13;16.17;;;;;;;13.51;nan;97657.50;5053450;28;20315;-70
2022/09/25 11:23:43;;;;;;;22.60;17.67;;;;;;;13.51;nan;97665.53;5053745;28;20238;-70
2022/09/25 11:26:18;;;;;;;18.27;16.13;;;;;;;13.49;nan;97664.16;5053718;28;20194;-70
2022/09/25 11:29:23;;;;;;;19.27;17.27;;;;;;;13.50;nan;97660.44;5053611;28;20234;-70
2022/09/25 11:32:01;;;;;;;19.33;17.33;;;;;;;13.52;nan;97667.13;5035248;28;20671;-71
2022/09/25 11:34:51;;;;;;;18.07;16.27;;;;;;;13.50;nan;97663.91;5052513;28;20190;-70
2022/09/25 11:37:31;;;;;;;18.07;16.33;;;;;;;13.59;nan;97662.44;5052410;28;20199;-71
2022/09/25 11:43:06;;;;;;;19.53;17.60;;;;;;;13.69;nan;97659.88;5040293;28;20673;-70
2022/09/25 11:45:36;;;;;;;17.60;15.90;;;;;;;13.79;nan;97660.00;5053448;28;20201;-70
2022/09/25 11:48:20;;;;;;;18.60;16.70;;;;;;;13.95;nan;97669.84;5053745;28;20217;-70
2022/09/25 11:51:08;;;;;;;18.87;16.87;;;;;;;14.04;nan;97671.03;5053449;28;20229;-70
2022/09/25 11:53:59;;;;;;;17.57;15.60;;;;;;;14.09;nan;97671.06;5053708;28;20186;-70
2022/09/25 11:56:52;;;;;;;16.53;14.93;;;;;;;14.14;nan;97663.09;5053446;28;20288;-70
2022/09/25 11:59:32;;;;;;;20.50;16.17;;;;;;;14.22;nan;97652.00;5052078;28;20192;-70
2022/09/25 12:02:19;;;;;;;21.83;15.97;;;;;;;14.39;nan;97649.22;5052012;28;20192;-70
2022/09/25 12:04:54;;;;;;;17.37;15.57;;;;;;;14.45;nan;97649.03;5053220;28;20533;-70
2022/09/25 12:07:56;;;;;;;18.00;15.27;;;;;;;14.38;nan;97647.63;5053212;28;20239;-70
2022/09/25 12:10:38;;;;;;;15.97;14.27;;;;;;;14.44;nan;97641.25;4991147;28;20245;-70
2022/09/25 12:13:38;;;;;;;16.50;14.80;;;;;;;14.54;nan;97646.69;5047010;28;20205;-70
2022/09/25 12:16:28;;;;;;;16.27;14.37;;;;;;;14.64;nan;97649.44;5051900;28;20258;-70
2022/09/25 12:19:03;;;;;;;16.43;14.40;;;;;;;14.76;nan;97634.88;5052191;28;20193;-70
2022/09/25 12:21:40;;;;;;;15.07;13.40;;;;;;;14.71;nan;97642.03;5052639;28;20220;-70